sensor_id;sensor_type;location;lat;lon;timestamp;pressure;altitude;pressure_sealevel;temperature;humidity
64388;BME280;50709;52.648;4.764;2023-04-01T00:01:05;99060.81;;;14.80;72.74
64388;BME280;50709;52.648;4.764;2023-04-01T00:03:31;99051.91;;;14.62;72.87
64388;BME280;50709;52.648;4.764;2023-04-01T00:05:59;99062.38;;;14.85;72.71
64388;BME280;50709;52.648;4.764;2023-04-01T00:08:26;99066.69;;;14.86;72.91
64388;BME280;50709;52.648;4.764;2023-04-01T00:10:52;99055.50;;;14.82;72.58
64388;BME280;50709;52.648;4.764;2023-04-01T00:13:19;99060.97;;;14.96;73.02
64388;BME280;50709;52.648;4.764;2023-04-01T00:15:44;99058.69;;;14.89;72.85
64388;BME280;50709;52.648;4.764;2023-04-01T00:18:12;99068.94;;;14.95;72.75
64388;BME280;50709;52.648;4.764;2023-04-01T00:20:38;99064.78;;;14.89;72.51
64388;BME280;50709;52.648;4.764;2023-04-01T00:23:03;99066.69;;;14.86;72.81
64388;BME280;50709;52.648;4.764;2023-04-01T00:25:30;99069.06;;;14.92;72.90
64388;BME280;50709;52.648;4.764;2023-04-01T00:27:56;99064.22;;;14.83;72.88
64388;BME280;50709;52.648;4.764;2023-04-01T00:30:21;99078.53;;;14.96;72.82
64388;BME280;50709;52.648;4.764;2023-04-01T00:32:51;99074.47;;;14.89;72.39
64388;BME280;50709;52.648;4.764;2023-04-01T00:35:17;99071.69;;;14.92;72.32
64388;BME280;50709;52.648;4.764;2023-04-01T00:37:43;99079.19;;;15.01;72.04
64388;BME280;50709;52.648;4.764;2023-04-01T00:40:31;99054.50;;;14.85;72.16
64388;BME280;50709;52.648;4.764;2023-04-01T00:42:59;99079.66;;;14.90;72.35
64388;BME280;50709;52.648;4.764;2023-04-01T00:47:54;99087.78;;;14.84;72.22
64388;BME280;50709;52.648;4.764;2023-04-01T00:50:21;99084.97;;;14.89;72.82
64388;BME280;50709;52.648;4.764;2023-04-01T00:52:47;99089.94;;;14.95;72.12
64388;BME280;50709;52.648;4.764;2023-04-01T00:55:14;99097.19;;;14.90;71.91
64388;BME280;50709;52.648;4.764;2023-04-01T00:57:42;99092.78;;;14.90;72.27
64388;BME280;50709;52.648;4.764;2023-04-01T01:00:10;99067.09;;;14.76;72.11
64388;BME280;50709;52.648;4.764;2023-04-01T01:02:38;99096.19;;;14.92;72.40
64388;BME280;50709;52.648;4.764;2023-04-01T01:05:05;99095.53;;;15.08;71.42
64388;BME280;50709;52.648;4.764;2023-04-01T01:10:25;99108.38;;;15.35;70.55
64388;BME280;50709;52.648;4.764;2023-04-01T01:15:58;99111.50;;;15.43;70.08
64388;BME280;50709;52.648;4.764;2023-04-01T01:18:49;99120.00;;;15.29;70.31
64388;BME280;50709;52.648;4.764;2023-04-01T01:37:30;99137.34;;;15.33;70.58
64388;BME280;50709;52.648;4.764;2023-04-01T01:40:00;99130.19;;;14.97;70.07
64388;BME280;50709;52.648;4.764;2023-04-01T01:42:28;99138.59;;;15.05;70.81
64388;BME280;50709;52.648;4.764;2023-04-01T01:44:57;99141.47;;;15.20;70.92
64388;BME280;50709;52.648;4.764;2023-04-01T01:47:25;99163.34;;;15.20;70.30
64388;BME280;50709;52.648;4.764;2023-04-01T01:49:53;99167.78;;;15.20;69.67
64388;BME280;50709;52.648;4.764;2023-04-01T01:52:21;99150.06;;;15.23;70.36
64388;BME280;50709;52.648;4.764;2023-04-01T01:54:51;99124.31;;;15.11;69.34
64388;BME280;50709;52.648;4.764;2023-04-01T01:57:20;99172.91;;;15.42;69.09
64388;BME280;50709;52.648;4.764;2023-04-01T01:59:48;99173.69;;;15.44;69.97
64388;BME280;50709;52.648;4.764;2023-04-01T02:02:17;99181.06;;;15.36;69.87
64388;BME280;50709;52.648;4.764;2023-04-01T02:04:44;99180.22;;;15.35;69.45
64388;BME280;50709;52.648;4.764;2023-04-01T02:07:17;99182.59;;;15.41;69.86
64388;BME280;50709;52.648;4.764;2023-04-01T02:09:43;99191.16;;;15.26;70.27
64388;BME280;50709;52.648;4.764;2023-04-01T02:12:11;99188.81;;;15.20;69.69
64388;BME280;50709;52.648;4.764;2023-04-01T02:15:06;99211.28;;;15.27;69.87
64388;BME280;50709;52.648;4.764;2023-04-01T02:17:34;99181.44;;;15.28;69.58
64388;BME280;50709;52.648;4.764;2023-04-01T02:20:09;99217.59;;;15.23;70.08
64388;BME280;50709;52.648;4.764;2023-04-01T02:22:42;99221.69;;;15.49;68.75
64388;BME280;50709;52.648;4.764;2023-04-01T02:25:10;99223.78;;;15.61;69.04
64388;BME280;50709;52.648;4.764;2023-04-01T02:27:39;99212.69;;;15.55;68.24
64388;BME280;50709;52.648;4.764;2023-04-01T02:30:06;99225.28;;;15.48;68.95
64388;BME280;50709;52.648;4.764;2023-04-01T02:32:33;99234.91;;;15.68;68.49
64388;BME280;50709;52.648;4.764;2023-04-01T02:35:00;99233.31;;;15.64;68.56
64388;BME280;50709;52.648;4.764;2023-04-01T02:37:28;99220.94;;;15.47;68.60
64388;BME280;50709;52.648;4.764;2023-04-01T02:39:54;99237.22;;;15.55;69.05
64388;BME280;50709;52.648;4.764;2023-04-01T02:42:43;99230.19;;;15.56;69.04
64388;BME280;50709;52.648;4.764;2023-04-01T02:45:10;99241.53;;;15.77;68.44
64388;BME280;50709;52.648;4.764;2023-04-01T02:47:36;99244.78;;;15.84;67.69
64388;BME280;50709;52.648;4.764;2023-04-01T02:50:01;99234.69;;;15.54;68.75
64388;BME280;50709;52.648;4.764;2023-04-01T02:52:28;99254.22;;;15.48;68.55
64388;BME280;50709;52.648;4.764;2023-04-01T02:54:55;99260.19;;;15.31;69.31
64388;BME280;50709;52.648;4.764;2023-04-01T02:57:20;99265.63;;;15.26;68.73
64388;BME280;50709;52.648;4.764;2023-04-01T03:00:06;99261.63;;;15.38;68.22
64388;BME280;50709;52.648;4.764;2023-04-01T03:02:37;99260.59;;;15.22;68.49
64388;BME280;50709;52.648;4.764;2023-04-01T03:05:03;99260.91;;;15.55;67.79
64388;BME280;50709;52.648;4.764;2023-04-01T03:07:28;99274.13;;;15.33;69.19
64388;BME280;50709;52.648;4.764;2023-04-01T03:09:54;99279.78;;;15.44;68.74
64388;BME280;50709;52.648;4.764;2023-04-01T03:12:19;99293.94;;;15.21;69.54
64388;BME280;50709;52.648;4.764;2023-04-01T03:14:46;99297.16;;;15.28;69.20
64388;BME280;50709;52.648;4.764;2023-04-01T03:17:11;99254.25;;;15.05;69.15
64388;BME280;50709;52.648;4.764;2023-04-01T03:19:37;99312.25;;;15.23;69.38
64388;BME280;50709;52.648;4.764;2023-04-01T03:22:02;99313.50;;;15.14;69.69
64388;BME280;50709;52.648;4.764;2023-04-01T03:24:27;99294.25;;;15.13;69.78
64388;BME280;50709;52.648;4.764;2023-04-01T03:26:53;99325.16;;;15.29;70.13
64388;BME280;50709;52.648;4.764;2023-04-01T03:29:18;99317.91;;;15.13;69.65
64388;BME280;50709;52.648;4.764;2023-04-01T03:31:44;99327.47;;;15.37;69.34
64388;BME280;50709;52.648;4.764;2023-04-01T03:34:09;99329.50;;;15.30;69.28
64388;BME280;50709;52.648;4.764;2023-04-01T03:36:35;99306.19;;;15.21;69.57
64388;BME280;50709;52.648;4.764;2023-04-01T03:39:00;99328.19;;;15.20;69.51
64388;BME280;50709;52.648;4.764;2023-04-01T03:41:25;99334.72;;;15.09;69.27
64388;BME280;50709;52.648;4.764;2023-04-01T03:43:53;99339.72;;;15.16;69.58
64388;BME280;50709;52.648;4.764;2023-04-01T03:46:19;99321.63;;;14.86;69.97
64388;BME280;50709;52.648;4.764;2023-04-01T03:48:45;99345.53;;;15.02;69.65
64388;BME280;50709;52.648;4.764;2023-04-01T03:51:10;99341.19;;;15.01;69.47
64388;BME280;50709;52.648;4.764;2023-04-01T03:53:36;99351.50;;;15.27;69.29
64388;BME280;50709;52.648;4.764;2023-04-01T03:56:06;99351.84;;;15.20;69.39
64388;BME280;50709;52.648;4.764;2023-04-01T03:58:31;99360.13;;;15.31;69.37
64388;BME280;50709;52.648;4.764;2023-04-01T04:00:57;99368.63;;;15.38;68.36
64388;BME280;50709;52.648;4.764;2023-04-01T04:03:22;99368.56;;;15.39;68.73
64388;BME280;50709;52.648;4.764;2023-04-01T04:05:48;99351.47;;;15.07;68.31
64388;BME280;50709;52.648;4.764;2023-04-01T04:08:15;99349.53;;;15.12;69.17
64388;BME280;50709;52.648;4.764;2023-04-01T04:10:40;99380.50;;;15.48;68.28
64388;BME280;50709;52.648;4.764;2023-04-01T04:13:06;99383.50;;;15.39;68.63
64388;BME280;50709;52.648;4.764;2023-04-01T04:15:32;99365.09;;;15.39;68.20
64388;BME280;50709;52.648;4.764;2023-04-01T04:17:58;99372.38;;;15.32;68.42
64388;BME280;50709;52.648;4.764;2023-04-01T04:20:24;99384.25;;;15.20;68.50
64388;BME280;50709;52.648;4.764;2023-04-01T04:22:50;99398.31;;;15.41;68.27
64388;BME280;50709;52.648;4.764;2023-04-01T04:25:15;99408.84;;;15.41;68.41
64388;BME280;50709;52.648;4.764;2023-04-01T04:27:40;99400.41;;;15.11;68.42
64388;BME280;50709;52.648;4.764;2023-04-01T04:30:07;99397.03;;;15.29;68.70
64388;BME280;50709;52.648;4.764;2023-04-01T04:32:33;99414.56;;;15.29;69.04
64388;BME280;50709;52.648;4.764;2023-04-01T04:34:58;99418.31;;;15.45;68.35
64388;BME280;50709;52.648;4.764;2023-04-01T04:37:24;99421.72;;;15.70;67.41
64388;BME280;50709;52.648;4.764;2023-04-01T04:39:51;99385.47;;;15.34;66.90
64388;BME280;50709;52.648;4.764;2023-04-01T04:42:16;99423.19;;;15.33;68.08
64388;BME280;50709;52.648;4.764;2023-04-01T04:44:41;99430.13;;;15.35;68.82
64388;BME280;50709;52.648;4.764;2023-04-01T04:47:07;99424.53;;;15.21;68.65
64388;BME280;50709;52.648;4.764;2023-04-01T04:49:32;99439.47;;;15.42;68.43
64388;BME280;50709;52.648;4.764;2023-04-01T04:51:58;99443.03;;;15.41;68.57
64388;BME280;50709;52.648;4.764;2023-04-01T04:54:23;99443.66;;;15.48;67.83
64388;BME280;50709;52.648;4.764;2023-04-01T04:56:51;99444.94;;;15.38;68.54
64388;BME280;50709;52.648;4.764;2023-04-01T04:59:17;99446.06;;;15.53;67.73
64388;BME280;50709;52.648;4.764;2023-04-01T05:01:43;99446.06;;;15.53;67.80
64388;BME280;50709;52.648;4.764;2023-04-01T05:04:08;99463.09;;;15.66;67.12
64388;BME280;50709;52.648;4.764;2023-04-01T05:06:33;99469.13;;;15.68;66.71
64388;BME280;50709;52.648;4.764;2023-04-01T05:08:59;99450.59;;;15.49;67.11
64388;BME280;50709;52.648;4.764;2023-04-01T05:11:24;99475.06;;;15.73;66.24
64388;BME280;50709;52.648;4.764;2023-04-01T05:13:51;99479.19;;;15.58;67.31
64388;BME280;50709;52.648;4.764;2023-04-01T05:16:18;99478.09;;;15.86;65.75
64388;BME280;50709;52.648;4.764;2023-04-01T05:18:44;99480.09;;;15.79;65.91
64388;BME280;50709;52.648;4.764;2023-04-01T05:21:11;99482.69;;;15.81;65.42
64388;BME280;50709;52.648;4.764;2023-04-01T05:23:37;99489.09;;;15.74;65.99
64388;BME280;50709;52.648;4.764;2023-04-01T05:26:07;99501.03;;;15.83;65.76
64388;BME280;50709;52.648;4.764;2023-04-01T05:28:33;99490.38;;;15.63;66.14
64388;BME280;50709;52.648;4.764;2023-04-01T05:31:00;99499.94;;;15.66;65.88
64388;BME280;50709;52.648;4.764;2023-04-01T05:33:26;99517.44;;;15.67;65.78
64388;BME280;50709;52.648;4.764;2023-04-01T05:35:53;99502.69;;;15.63;66.39
64388;BME280;50709;52.648;4.764;2023-04-01T05:38:18;99521.19;;;15.84;65.64
64388;BME280;50709;52.648;4.764;2023-04-01T05:40:44;99523.25;;;15.75;65.51
64388;BME280;50709;52.648;4.764;2023-04-01T05:43:09;99521.53;;;15.74;65.71
64388;BME280;50709;52.648;4.764;2023-04-01T05:45:35;99532.34;;;15.67;65.75
64388;BME280;50709;52.648;4.764;2023-04-01T05:48:00;99530.22;;;15.76;65.76
64388;BME280;50709;52.648;4.764;2023-04-01T05:50:29;99537.81;;;15.84;65.60
64388;BME280;50709;52.648;4.764;2023-04-01T05:52:54;99539.47;;;15.64;65.95
64388;BME280;50709;52.648;4.764;2023-04-01T05:55:20;99498.94;;;15.46;65.75
64388;BME280;50709;52.648;4.764;2023-04-01T05:57:46;99509.91;;;15.58;65.48
64388;BME280;50709;52.648;4.764;2023-04-01T06:00:13;99538.59;;;15.64;65.43
64388;BME280;50709;52.648;4.764;2023-04-01T06:02:39;99544.53;;;15.47;66.63
64388;BME280;50709;52.648;4.764;2023-04-01T06:05:20;99552.31;;;15.50;66.57
64388;BME280;50709;52.648;4.764;2023-04-01T06:07:46;99563.03;;;15.44;66.79
64388;BME280;50709;52.648;4.764;2023-04-01T06:10:17;99532.16;;;15.49;66.10
64388;BME280;50709;52.648;4.764;2023-04-01T06:26:33;99582.56;;;15.62;66.12
64388;BME280;50709;52.648;4.764;2023-04-01T06:46:23;99605.97;;;15.46;66.26
64388;BME280;50709;52.648;4.764;2023-04-01T06:49:29;99608.13;;;15.58;65.78
64388;BME280;50709;52.648;4.764;2023-04-01T06:54:52;99627.97;;;15.67;66.06
64388;BME280;50709;52.648;4.764;2023-04-01T06:57:41;99617.28;;;15.48;66.51
64388;BME280;50709;52.648;4.764;2023-04-01T07:00:21;99627.97;;;15.43;66.69
64388;BME280;50709;52.648;4.764;2023-04-01T07:03:16;99597.38;;;15.41;65.76
64388;BME280;50709;52.648;4.764;2023-04-01T07:05:45;99643.13;;;15.60;65.94
64388;BME280;50709;52.648;4.764;2023-04-01T07:08:26;99642.50;;;15.30;66.95
64388;BME280;50709;52.648;4.764;2023-04-01T07:10:56;99648.22;;;15.18;67.19
64388;BME280;50709;52.648;4.764;2023-04-01T07:13:51;99631.03;;;15.07;67.84
64388;BME280;50709;52.648;4.764;2023-04-01T07:21:40;99670.41;;;15.34;66.32
64388;BME280;50709;52.648;4.764;2023-04-01T07:24:15;99677.50;;;15.32;66.86
64388;BME280;50709;52.648;4.764;2023-04-01T07:26:42;99682.22;;;15.22;67.95
64388;BME280;50709;52.648;4.764;2023-04-01T07:29:13;99689.00;;;15.29;67.05
64388;BME280;50709;52.648;4.764;2023-04-01T07:53:06;99717.50;;;15.17;68.03
64388;BME280;50709;52.648;4.764;2023-04-01T08:01:27;99725.31;;;15.43;66.72
64388;BME280;50709;52.648;4.764;2023-04-01T08:09:48;99703.56;;;15.38;66.64
64388;BME280;50709;52.648;4.764;2023-04-01T08:15:10;99733.09;;;15.46;66.64
64388;BME280;50709;52.648;4.764;2023-04-01T08:18:03;99746.22;;;15.48;66.85
64388;BME280;50709;52.648;4.764;2023-04-01T08:23:14;99759.19;;;15.53;66.65
64388;BME280;50709;52.648;4.764;2023-04-01T08:25:48;99763.50;;;15.30;67.60
64388;BME280;50709;52.648;4.764;2023-04-01T08:28:20;99757.59;;;15.48;67.25
64388;BME280;50709;52.648;4.764;2023-04-01T08:33:27;99762.97;;;15.45;66.81
64388;BME280;50709;52.648;4.764;2023-04-01T08:38:43;99778.59;;;15.50;66.75
64388;BME280;50709;52.648;4.764;2023-04-01T08:44:48;99761.00;;;14.73;68.07
64388;BME280;50709;52.648;4.764;2023-04-01T08:55:44;99809.53;;;14.90;71.05
64388;BME280;50709;52.648;4.764;2023-04-01T09:06:44;99812.16;;;15.17;73.53
64388;BME280;50709;52.648;4.764;2023-04-01T09:09:37;99823.09;;;15.04;72.33
64388;BME280;50709;52.648;4.764;2023-04-01T09:23:19;99808.88;;;15.37;71.83
64388;BME280;50709;52.648;4.764;2023-04-01T09:31:26;99845.53;;;15.93;72.09
64388;BME280;50709;52.648;4.764;2023-04-01T09:36:46;99833.69;;;16.05;69.95
64388;BME280;50709;52.648;4.764;2023-04-01T09:42:32;99815.94;;;16.10;68.46
64388;BME280;50709;52.648;4.764;2023-04-01T09:51:17;99858.25;;;16.53;68.81
64388;BME280;50709;52.648;4.764;2023-04-01T09:54:09;99842.75;;;16.45;67.57
64388;BME280;50709;52.648;4.764;2023-04-01T10:22:04;99871.13;;;19.26;61.34
64388;BME280;50709;52.648;4.764;2023-04-01T10:27:23;99918.91;;;19.77;60.84
64388;BME280;50709;52.648;4.764;2023-04-01T10:30:02;99905.22;;;20.04;60.20
64388;BME280;50709;52.648;4.764;2023-04-01T10:44:16;99911.84;;;20.28;59.06
64388;BME280;50709;52.648;4.764;2023-04-01T10:58:33;99902.06;;;19.43;60.63
64388;BME280;50709;52.648;4.764;2023-04-01T11:04:17;99938.84;;;19.49;58.99
64388;BME280;50709;52.648;4.764;2023-04-01T11:10:04;99933.59;;;20.02;56.50
64388;BME280;50709;52.648;4.764;2023-04-01T11:15:31;99960.53;;;19.75;59.92
64388;BME280;50709;52.648;4.764;2023-04-01T11:21:03;99962.91;;;20.49;58.06
64388;BME280;50709;52.648;4.764;2023-04-01T11:35:25;99976.38;;;19.94;58.45
64388;BME280;50709;52.648;4.764;2023-04-01T11:43:16;99996.91;;;19.35;58.89
64388;BME280;50709;52.648;4.764;2023-04-01T11:51:50;99996.00;;;20.25;58.33
64388;BME280;50709;52.648;4.764;2023-04-01T11:57:06;100004.97;;;19.50;58.35
64388;BME280;50709;52.648;4.764;2023-04-01T12:08:21;100020.97;;;19.47;58.01
64388;BME280;50709;52.648;4.764;2023-04-01T12:10:55;99997.91;;;18.94;61.10
64388;BME280;50709;52.648;4.764;2023-04-01T12:13:35;100042.25;;;19.46;60.37
64388;BME280;50709;52.648;4.764;2023-04-01T12:16:15;100014.59;;;18.75;59.74
64388;BME280;50709;52.648;4.764;2023-04-01T12:49:33;100052.19;;;18.42;58.06
64388;BME280;50709;52.648;4.764;2023-04-01T13:14:29;100133.56;;;18.34;62.00
64388;BME280;50709;52.648;4.764;2023-04-01T13:17:25;100110.06;;;18.28;61.29
64388;BME280;50709;52.648;4.764;2023-04-01T13:23:58;100126.50;;;17.90;60.98
64388;BME280;50709;52.648;4.764;2023-04-01T13:27:07;100158.84;;;18.41;61.42
64388;BME280;50709;52.648;4.764;2023-04-01T13:30:05;100156.81;;;18.26;59.45
64388;BME280;50709;52.648;4.764;2023-04-01T13:48:56;100181.13;;;17.90;63.28
64388;BME280;50709;52.648;4.764;2023-04-01T14:00:32;100167.88;;;17.91;61.30
64388;BME280;50709;52.648;4.764;2023-04-01T14:06:11;100217.28;;;17.40;59.89
64388;BME280;50709;52.648;4.764;2023-04-01T14:23:13;100250.97;;;17.59;61.90
64388;BME280;50709;52.648;4.764;2023-04-01T14:29:11;100242.13;;;17.83;62.24
64388;BME280;50709;52.648;4.764;2023-04-01T14:50:24;100307.94;;;17.39;63.00
64388;BME280;50709;52.648;4.764;2023-04-01T14:53:11;100265.72;;;17.39;62.76
64388;BME280;50709;52.648;4.764;2023-04-01T15:03:44;100332.50;;;16.59;60.79
64388;BME280;50709;52.648;4.764;2023-04-01T15:06:34;100313.41;;;16.23;61.52
64388;BME280;50709;52.648;4.764;2023-04-01T15:18:07;100355.53;;;17.63;63.06
64388;BME280;50709;52.648;4.764;2023-04-01T15:26:21;100351.91;;;16.85;61.80
64388;BME280;50709;52.648;4.764;2023-04-01T15:29:12;100345.50;;;17.21;64.03
64388;BME280;50709;52.648;4.764;2023-04-01T15:32:01;100373.63;;;17.22;63.99
64388;BME280;50709;52.648;4.764;2023-04-01T15:34:49;100355.56;;;16.81;62.85
64388;BME280;50709;52.648;4.764;2023-04-01T15:42:46;100398.47;;;17.43;63.48
64388;BME280;50709;52.648;4.764;2023-04-01T15:57:27;100432.41;;;16.06;62.33
64388;BME280;50709;52.648;4.764;2023-04-01T16:00:20;100451.91;;;16.63;64.28
64388;BME280;50709;52.648;4.764;2023-04-01T16:08:40;100465.53;;;15.81;63.23
64388;BME280;50709;52.648;4.764;2023-04-01T16:22:31;100454.84;;;15.88;63.35
64388;BME280;50709;52.648;4.764;2023-04-01T16:28:17;100501.56;;;15.79;63.46
64388;BME280;50709;52.648;4.764;2023-04-01T16:36:49;100519.09;;;15.79;62.88
64388;BME280;50709;52.648;4.764;2023-04-01T16:44:46;100498.78;;;15.87;62.93
64388;BME280;50709;52.648;4.764;2023-04-01T16:47:22;100531.38;;;16.51;62.78
64388;BME280;50709;52.648;4.764;2023-04-01T16:49:53;100504.06;;;16.20;62.41
64388;BME280;50709;52.648;4.764;2023-04-01T16:53:01;100549.63;;;15.89;59.86
64388;BME280;50709;52.648;4.764;2023-04-01T16:58:32;100558.31;;;16.27;62.57
64388;BME280;50709;52.648;4.764;2023-04-01T17:01:06;100548.75;;;15.89;61.79
64388;BME280;50709;52.648;4.764;2023-04-01T17:03:40;100565.44;;;16.24;62.42
64388;BME280;50709;52.648;4.764;2023-04-01T17:06:21;100593.16;;;16.39;65.02
64388;BME280;50709;52.648;4.764;2023-04-01T17:09:01;100587.88;;;16.04;63.55
64388;BME280;50709;52.648;4.764;2023-04-01T17:15:04;100594.44;;;15.47;61.59
64388;BME280;50709;52.648;4.764;2023-04-01T17:25:56;100613.84;;;15.84;65.52
64388;BME280;50709;52.648;4.764;2023-04-01T17:28:34;100623.53;;;14.97;62.20
64388;BME280;50709;52.648;4.764;2023-04-01T17:42:58;100660.13;;;15.94;65.30
64388;BME280;50709;52.648;4.764;2023-04-01T17:45:36;100682.41;;;16.17;63.68
64388;BME280;50709;52.648;4.764;2023-04-01T17:48:49;100668.25;;;15.85;63.15
64388;BME280;50709;52.648;4.764;2023-04-01T17:51:28;100681.13;;;15.55;65.60
64388;BME280;50709;52.648;4.764;2023-04-01T17:54:21;100691.75;;;15.50;63.70
64388;BME280;50709;52.648;4.764;2023-04-01T18:02:56;100725.19;;;15.45;61.94
64388;BME280;50709;52.648;4.764;2023-04-01T18:20:14;100754.47;;;14.19;62.91
64388;BME280;50709;52.648;4.764;2023-04-01T18:22:45;100769.03;;;14.40;66.08
64388;BME280;50709;52.648;4.764;2023-04-01T18:25:15;100749.59;;;15.05;65.36
64388;BME280;50709;52.648;4.764;2023-04-01T18:27:47;100767.97;;;14.53;63.08
64388;BME280;50709;52.648;4.764;2023-04-01T18:30:28;100777.22;;;14.21;64.84
64388;BME280;50709;52.648;4.764;2023-04-01T18:36:40;100814.72;;;14.92;66.43
64388;BME280;50709;52.648;4.764;2023-04-01T18:39:40;100773.91;;;14.68;64.50
64388;BME280;50709;52.648;4.764;2023-04-01T18:44:49;100822.72;;;14.22;64.42
64388;BME280;50709;52.648;4.764;2023-04-01T18:47:24;100835.53;;;14.45;65.59
64388;BME280;50709;52.648;4.764;2023-04-01T18:53:31;100860.03;;;13.75;65.22
64388;BME280;50709;52.648;4.764;2023-04-01T18:56:05;100853.88;;;15.10;66.96
64388;BME280;50709;52.648;4.764;2023-04-01T18:58:54;100867.78;;;14.55;65.19
64388;BME280;50709;52.648;4.764;2023-04-01T19:01:36;100871.69;;;14.93;64.43
64388;BME280;50709;52.648;4.764;2023-04-01T19:15:52;100880.84;;;14.64;61.39
64388;BME280;50709;52.648;4.764;2023-04-01T19:18:47;100910.38;;;14.83;60.92
64388;BME280;50709;52.648;4.764;2023-04-01T19:27:34;100915.09;;;14.55;63.25
64388;BME280;50709;52.648;4.764;2023-04-01T19:36:03;100940.34;;;15.32;61.69
64388;BME280;50709;52.648;4.764;2023-04-01T19:41:36;100931.03;;;15.62;57.48
64388;BME280;50709;52.648;4.764;2023-04-01T19:46:44;100971.38;;;16.61;54.52
64388;BME280;50709;52.648;4.764;2023-04-01T19:52:18;100948.50;;;17.40;54.80
64388;BME280;50709;52.648;4.764;2023-04-01T20:06:10;101034.63;;;16.63;54.53
64388;BME280;50709;52.648;4.764;2023-04-01T20:19:39;101054.75;;;15.66;56.97
64388;BME280;50709;52.648;4.764;2023-04-01T20:24:53;101027.88;;;16.00;57.54
64388;BME280;50709;52.648;4.764;2023-04-01T20:27:31;101006.72;;;16.04;57.20
64388;BME280;50709;52.648;4.764;2023-04-01T20:39:32;101072.06;;;15.20;58.51
64388;BME280;50709;52.648;4.764;2023-04-01T20:42:39;101093.47;;;14.92;60.32
64388;BME280;50709;52.648;4.764;2023-04-01T20:45:48;101060.41;;;14.69;57.32
64388;BME280;50709;52.648;4.764;2023-04-01T20:48:50;101042.53;;;14.15;57.43
64388;BME280;50709;52.648;4.764;2023-04-01T20:51:34;101057.84;;;13.65;59.31
64388;BME280;50709;52.648;4.764;2023-04-01T20:54:25;101103.31;;;14.70;60.61
64388;BME280;50709;52.648;4.764;2023-04-01T20:57:06;101068.50;;;14.47;56.99
64388;BME280;50709;52.648;4.764;2023-04-01T21:05:43;101161.59;;;14.19;59.24
64388;BME280;50709;52.648;4.764;2023-04-01T21:16:10;101166.59;;;14.50;59.69
64388;BME280;50709;52.648;4.764;2023-04-01T21:41:53;101173.44;;;13.42;60.09
64388;BME280;50709;52.648;4.764;2023-04-01T21:47:31;101219.72;;;13.52;60.82
64388;BME280;50709;52.648;4.764;2023-04-01T22:20:20;101290.59;;;13.41;61.36
64388;BME280;50709;52.648;4.764;2023-04-01T22:28:30;101300.19;;;13.55;61.43
64388;BME280;50709;52.648;4.764;2023-04-01T22:31:02;101288.00;;;13.26;62.85
64388;BME280;50709;52.648;4.764;2023-04-01T22:34:05;101291.44;;;13.56;63.01
64388;BME280;50709;52.648;4.764;2023-04-01T22:42:42;101332.59;;;13.21;60.56
64388;BME280;50709;52.648;4.764;2023-04-01T22:48:18;101296.78;;;13.00;61.50
64388;BME280;50709;52.648;4.764;2023-04-01T22:53:59;101357.94;;;13.19;62.04
64388;BME280;50709;52.648;4.764;2023-04-01T22:56:40;101353.56;;;13.32;62.34
64388;BME280;50709;52.648;4.764;2023-04-01T23:02:16;101372.81;;;13.37;61.38
64388;BME280;50709;52.648;4.764;2023-04-01T23:04:47;101361.47;;;13.37;62.28
64388;BME280;50709;52.648;4.764;2023-04-01T23:07:30;101381.56;;;13.58;62.10
64388;BME280;50709;52.648;4.764;2023-04-01T23:10:36;101374.56;;;13.24;60.63
64388;BME280;50709;52.648;4.764;2023-04-01T23:13:12;101383.31;;;13.40;62.02
64388;BME280;50709;52.648;4.764;2023-04-01T23:15:39;101382.41;;;13.29;62.39
64388;BME280;50709;52.648;4.764;2023-04-01T23:18:18;101390.22;;;12.62;59.86
64388;BME280;50709;52.648;4.764;2023-04-01T23:23:46;101418.25;;;12.96;61.10
64388;BME280;50709;52.648;4.764;2023-04-01T23:28:53;101420.88;;;13.07;62.54
64388;BME280;50709;52.648;4.764;2023-04-01T23:31:32;101408.59;;;12.89;60.50
64388;BME280;50709;52.648;4.764;2023-04-01T23:36:47;101446.97;;;12.60;61.91
64388;BME280;50709;52.648;4.764;2023-04-01T23:41:47;101436.63;;;13.07;61.40
64388;BME280;50709;52.648;4.764;2023-04-01T23:44:13;101411.22;;;12.86;61.04
64388;BME280;50709;52.648;4.764;2023-04-01T23:46:41;101418.25;;;13.07;61.83
64388;BME280;50709;52.648;4.764;2023-04-01T23:49:14;101440.88;;;12.57;60.20
64388;BME280;50709;52.648;4.764;2023-04-01T23:52:03;101446.19;;;12.94;61.64
64388;BME280;50709;52.648;4.764;2023-04-01T23:56:55;101423.47;;;12.87;60.04
64388;BME280;50709;52.648;4.764;2023-04-01T23:59:31;101437.47;;;12.93;60.24
